sensor_id;sensor_type;location;lat;lon;timestamp;P1;durP1;ratioP1;P2;durP2;ratioP2
10440;SDS011;5268;49.346;9.522;2023-04-03T03:09:31;2.25;;;1.60;;
10440;SDS011;5268;49.346;9.522;2023-04-03T03:14:34;2.88;;;1.77;;
10440;SDS011;5268;49.346;9.522;2023-04-03T03:19:37;3.70;;;1.80;;
10440;SDS011;5268;49.346;9.522;2023-04-03T03:24:40;2.70;;;1.80;;
10440;SDS011;5268;49.346;9.522;2023-04-03T03:29:42;2.50;;;1.65;;
10440;SDS011;5268;49.346;9.522;2023-04-03T03:34:44;3.42;;;2.05;;
10440;SDS011;5268;49.346;9.522;2023-04-03T03:39:48;2.25;;;1.80;;
10440;SDS011;5268;49.346;9.522;2023-04-03T03:44:49;3.15;;;1.77;;
10440;SDS011;5268;49.346;9.522;2023-04-03T03:49:52;3.50;;;1.92;;
10440;SDS011;5268;49.346;9.522;2023-04-03T03:54:55;2.30;;;1.70;;
10440;SDS011;5268;49.346;9.522;2023-04-03T03:59:57;2.67;;;1.70;;
10440;SDS011;5268;49.346;9.522;2023-04-03T04:04:59;3.15;;;1.95;;
10440;SDS011;5268;49.346;9.522;2023-04-03T04:10:03;3.20;;;1.77;;
10440;SDS011;5268;49.346;9.522;2023-04-03T04:15:07;2.10;;;1.77;;
10440;SDS011;5268;49.346;9.522;2023-04-03T04:20:10;3.75;;;1.80;;
10440;SDS011;5268;49.346;9.522;2023-04-03T04:25:14;3.00;;;2.00;;
10440;SDS011;5268;49.346;9.522;2023-04-03T04:30:16;2.55;;;2.03;;
10440;SDS011;5268;49.346;9.522;2023-04-03T04:35:18;2.30;;;1.90;;
10440;SDS011;5268;49.346;9.522;2023-04-03T04:40:21;3.97;;;1.90;;
10440;SDS011;5268;49.346;9.522;2023-04-03T04:45:24;2.60;;;1.88;;
10440;SDS011;5268;49.346;9.522;2023-04-03T04:50:25;3.55;;;2.38;;
10440;SDS011;5268;49.346;9.522;2023-04-03T04:55:29;4.00;;;2.35;;
10440;SDS011;5268;49.346;9.522;2023-04-03T05:00:31;3.00;;;2.30;;
10440;SDS011;5268;49.346;9.522;2023-04-03T05:05:33;3.85;;;2.15;;
10440;SDS011;5268;49.346;9.522;2023-04-03T05:10:37;3.65;;;2.30;;
10440;SDS011;5268;49.346;9.522;2023-04-03T05:15:40;4.57;;;2.85;;
10440;SDS011;5268;49.346;9.522;2023-04-03T05:20:42;3.08;;;2.50;;
10440;SDS011;5268;49.346;9.522;2023-04-03T05:25:46;2.40;;;2.20;;
10440;SDS011;5268;49.346;9.522;2023-04-03T05:30:52;5.72;;;2.70;;
10440;SDS011;5268;49.346;9.522;2023-04-03T05:35:55;4.78;;;2.72;;
10440;SDS011;5268;49.346;9.522;2023-04-03T05:40:59;4.88;;;2.80;;
10440;SDS011;5268;49.346;9.522;2023-04-03T05:46:01;5.30;;;3.08;;
10440;SDS011;5268;49.346;9.522;2023-04-03T05:51:03;5.28;;;3.10;;
10440;SDS011;5268;49.346;9.522;2023-04-03T05:56:07;4.13;;;3.20;;
10440;SDS011;5268;49.346;9.522;2023-04-03T06:01:09;6.20;;;3.78;;
10440;SDS011;5268;49.346;9.522;2023-04-03T06:06:12;8.75;;;6.30;;
10440;SDS011;5268;49.346;9.522;2023-04-03T06:11:16;6.68;;;5.28;;
10440;SDS011;5268;49.346;9.522;2023-04-03T06:16:18;7.95;;;5.50;;
10440;SDS011;5268;49.346;9.522;2023-04-03T06:21:21;8.48;;;5.00;;
10440;SDS011;5268;49.346;9.522;2023-04-03T06:26:24;5.25;;;3.60;;
10440;SDS011;5268;49.346;9.522;2023-04-03T06:31:27;4.28;;;3.38;;
10440;SDS011;5268;49.346;9.522;2023-04-03T06:36:29;4.68;;;3.08;;
10440;SDS011;5268;49.346;9.522;2023-04-03T06:41:33;4.30;;;3.03;;
10440;SDS011;5268;49.346;9.522;2023-04-03T06:46:35;3.17;;;2.67;;
10440;SDS011;5268;49.346;9.522;2023-04-03T06:51:37;5.32;;;3.10;;
10440;SDS011;5268;49.346;9.522;2023-04-03T06:56:40;3.95;;;2.80;;
10440;SDS011;5268;49.346;9.522;2023-04-03T07:01:42;5.15;;;2.40;;
10440;SDS011;5268;49.346;9.522;2023-04-03T07:06:44;4.95;;;2.60;;
10440;SDS011;5268;49.346;9.522;2023-04-03T07:11:48;3.70;;;2.55;;
10440;SDS011;5268;49.346;9.522;2023-04-03T07:16:50;4.07;;;2.22;;
10440;SDS011;5268;49.346;9.522;2023-04-03T07:21:53;4.25;;;2.45;;
10440;SDS011;5268;49.346;9.522;2023-04-03T07:26:56;2.65;;;2.03;;
10440;SDS011;5268;49.346;9.522;2023-04-03T07:31:58;3.55;;;2.30;;
10440;SDS011;5268;49.346;9.522;2023-04-03T07:37:00;3.65;;;2.05;;
10440;SDS011;5268;49.346;9.522;2023-04-03T07:42:04;3.53;;;2.30;;
10440;SDS011;5268;49.346;9.522;2023-04-03T07:47:06;4.20;;;2.20;;
10440;SDS011;5268;49.346;9.522;2023-04-03T07:52:09;4.75;;;2.40;;
10440;SDS011;5268;49.346;9.522;2023-04-03T07:57:12;4.50;;;2.70;;
10440;SDS011;5268;49.346;9.522;2023-04-03T08:02:14;2.97;;;2.00;;
10440;SDS011;5268;49.346;9.522;2023-04-03T08:07:16;3.97;;;2.10;;
10440;SDS011;5268;49.346;9.522;2023-04-03T08:12:20;3.30;;;2.05;;
10440;SDS011;5268;49.346;9.522;2023-04-03T08:17:22;5.70;;;2.38;;
10440;SDS011;5268;49.346;9.522;2023-04-03T08:22:25;3.20;;;2.10;;
10440;SDS011;5268;49.346;9.522;2023-04-03T08:27:28;3.90;;;2.13;;
10440;SDS011;5268;49.346;9.522;2023-04-03T08:32:31;4.18;;;1.80;;
10440;SDS011;5268;49.346;9.522;2023-04-03T08:37:34;3.13;;;1.90;;
10440;SDS011;5268;49.346;9.522;2023-04-03T08:42:41;3.08;;;2.33;;
10440;SDS011;5268;49.346;9.522;2023-04-03T08:47:52;4.22;;;2.50;;
10440;SDS011;5268;49.346;9.522;2023-04-03T08:52:59;4.63;;;2.10;;
10440;SDS011;5268;49.346;9.522;2023-04-03T08:58:10;4.05;;;2.33;;
10440;SDS011;5268;49.346;9.522;2023-04-03T09:03:16;3.65;;;2.13;;
10440;SDS011;5268;49.346;9.522;2023-04-03T09:08:22;2.85;;;1.88;;
10440;SDS011;5268;49.346;9.522;2023-04-03T09:13:29;3.55;;;2.10;;
10440;SDS011;5268;49.346;9.522;2023-04-03T09:18:37;2.67;;;1.95;;
10440;SDS011;5268;49.346;9.522;2023-04-03T09:23:44;4.57;;;2.10;;
10440;SDS011;5268;49.346;9.522;2023-04-03T09:28:50;3.47;;;2.00;;
10440;SDS011;5268;49.346;9.522;2023-04-03T09:33:54;4.50;;;2.20;;
10440;SDS011;5268;49.346;9.522;2023-04-03T09:39:03;3.88;;;2.30;;
10440;SDS011;5268;49.346;9.522;2023-04-03T09:44:19;3.35;;;2.28;;
10440;SDS011;5268;49.346;9.522;2023-04-03T09:49:23;2.97;;;2.10;;
10440;SDS011;5268;49.346;9.522;2023-04-03T09:54:30;2.60;;;2.28;;
10440;SDS011;5268;49.346;9.522;2023-04-03T09:59:38;2.53;;;1.92;;
10440;SDS011;5268;49.346;9.522;2023-04-03T10:04:44;3.60;;;2.33;;
10440;SDS011;5268;49.346;9.522;2023-04-03T10:09:49;5.10;;;1.90;;
10440;SDS011;5268;49.346;9.522;2023-04-03T10:14:58;2.25;;;1.83;;
10440;SDS011;5268;49.346;9.522;2023-04-03T10:20:02;3.90;;;1.95;;
10440;SDS011;5268;49.346;9.522;2023-04-03T10:25:10;6.65;;;2.17;;
10440;SDS011;5268;49.346;9.522;2023-04-03T10:30:21;1.65;;;1.33;;
10440;SDS011;5268;49.346;9.522;2023-04-03T10:35:40;4.80;;;2.50;;
10440;SDS011;5268;49.346;9.522;2023-04-03T10:40:47;2.90;;;2.20;;
10440;SDS011;5268;49.346;9.522;2023-04-03T10:46:01;5.10;;;1.77;;
10440;SDS011;5268;49.346;9.522;2023-04-03T10:51:11;4.13;;;2.67;;
10440;SDS011;5268;49.346;9.522;2023-04-03T10:56:22;3.75;;;2.10;;
10440;SDS011;5268;49.346;9.522;2023-04-03T11:01:34;3.03;;;1.83;;
10440;SDS011;5268;49.346;9.522;2023-04-03T11:06:41;3.92;;;2.10;;
10440;SDS011;5268;49.346;9.522;2023-04-03T11:11:48;2.92;;;1.55;;
10440;SDS011;5268;49.346;9.522;2023-04-03T11:16:59;2.95;;;1.50;;
10440;SDS011;5268;49.346;9.522;2023-04-03T11:22:09;2.40;;;1.58;;
10440;SDS011;5268;49.346;9.522;2023-04-03T11:27:17;3.03;;;1.50;;
10440;SDS011;5268;49.346;9.522;2023-04-03T11:32:29;3.20;;;1.17;;
10440;SDS011;5268;49.346;9.522;2023-04-03T11:37:55;3.10;;;1.50;;
10440;SDS011;5268;49.346;9.522;2023-04-03T11:43:04;3.08;;;1.70;;
10440;SDS011;5268;49.346;9.522;2023-04-03T11:53:37;3.65;;;1.52;;
10440;SDS011;5268;49.346;9.522;2023-04-03T11:58:41;2.22;;;1.50;;
10440;SDS011;5268;49.346;9.522;2023-04-03T12:04:24;3.95;;;1.58;;
10440;SDS011;5268;49.346;9.522;2023-04-03T12:09:34;2.88;;;1.50;;
10440;SDS011;5268;49.346;9.522;2023-04-03T12:14:53;3.55;;;1.55;;
10440;SDS011;5268;49.346;9.522;2023-04-03T12:19:55;4.03;;;1.70;;
10440;SDS011;5268;49.346;9.522;2023-04-03T12:24:57;2.95;;;1.60;;
10440;SDS011;5268;49.346;9.522;2023-04-03T12:30:01;2.45;;;1.40;;
10440;SDS011;5268;49.346;9.522;2023-04-03T12:35:15;1.95;;;1.40;;
10440;SDS011;5268;49.346;9.522;2023-04-03T12:40:24;2.55;;;1.60;;
10440;SDS011;5268;49.346;9.522;2023-04-03T12:45:39;3.50;;;1.70;;
10440;SDS011;5268;49.346;9.522;2023-04-03T12:50:45;4.88;;;1.60;;
10440;SDS011;5268;49.346;9.522;2023-04-03T12:55:48;2.58;;;2.10;;
10440;SDS011;5268;49.346;9.522;2023-04-03T13:01:00;2.10;;;1.67;;
10440;SDS011;5268;49.346;9.522;2023-04-03T13:06:04;2.03;;;1.25;;
10440;SDS011;5268;49.346;9.522;2023-04-03T13:11:08;3.55;;;1.70;;
10440;SDS011;5268;49.346;9.522;2023-04-03T13:16:17;2.58;;;1.50;;
10440;SDS011;5268;49.346;9.522;2023-04-03T13:21:19;2.88;;;1.77;;
10440;SDS011;5268;49.346;9.522;2023-04-03T13:26:25;3.60;;;1.73;;
10440;SDS011;5268;49.346;9.522;2023-04-03T13:31:31;2.60;;;1.90;;
10440;SDS011;5268;49.346;9.522;2023-04-03T13:36:35;2.33;;;1.73;;
10440;SDS011;5268;49.346;9.522;2023-04-03T13:41:39;2.65;;;2.20;;
10440;SDS011;5268;49.346;9.522;2023-04-03T13:46:44;2.50;;;1.67;;
10440;SDS011;5268;49.346;9.522;2023-04-03T13:51:46;3.30;;;1.95;;
10440;SDS011;5268;49.346;9.522;2023-04-03T13:56:52;2.22;;;1.75;;
10440;SDS011;5268;49.346;9.522;2023-04-03T14:02:08;2.38;;;1.73;;
10440;SDS011;5268;49.346;9.522;2023-04-03T14:07:15;2.80;;;1.70;;
10440;SDS011;5268;49.346;9.522;2023-04-03T14:12:21;2.97;;;1.77;;
10440;SDS011;5268;49.346;9.522;2023-04-03T14:17:30;2.33;;;1.80;;
10440;SDS011;5268;49.346;9.522;2023-04-03T14:22:32;2.05;;;1.58;;
10440;SDS011;5268;49.346;9.522;2023-04-03T14:27:37;2.83;;;1.67;;
10440;SDS011;5268;49.346;9.522;2023-04-03T14:32:42;2.20;;;1.70;;
10440;SDS011;5268;49.346;9.522;2023-04-03T14:37:45;2.17;;;1.50;;
10440;SDS011;5268;49.346;9.522;2023-04-03T14:42:47;2.60;;;1.63;;
10440;SDS011;5268;49.346;9.522;2023-04-03T14:47:51;2.47;;;1.40;;
10440;SDS011;5268;49.346;9.522;2023-04-03T14:52:56;2.28;;;1.60;;
10440;SDS011;5268;49.346;9.522;2023-04-03T14:57:59;2.13;;;1.50;;
10440;SDS011;5268;49.346;9.522;2023-04-03T15:03:04;2.70;;;1.42;;
10440;SDS011;5268;49.346;9.522;2023-04-03T15:08:08;2.47;;;1.40;;
10440;SDS011;5268;49.346;9.522;2023-04-03T15:13:18;2.30;;;1.50;;
10440;SDS011;5268;49.346;9.522;2023-04-03T15:18:22;2.75;;;1.40;;
10440;SDS011;5268;49.346;9.522;2023-04-03T15:23:26;2.13;;;1.40;;
10440;SDS011;5268;49.346;9.522;2023-04-03T15:28:30;2.80;;;1.65;;
10440;SDS011;5268;49.346;9.522;2023-04-03T15:33:36;2.40;;;1.70;;
10440;SDS011;5268;49.346;9.522;2023-04-03T15:38:39;6.00;;;3.40;;
10440;SDS011;5268;49.346;9.522;2023-04-03T15:43:41;1.73;;;1.40;;
10440;SDS011;5268;49.346;9.522;2023-04-03T15:48:45;1.65;;;1.23;;
10440;SDS011;5268;49.346;9.522;2023-04-03T15:53:47;3.58;;;1.50;;
10440;SDS011;5268;49.346;9.522;2023-04-03T15:58:49;2.60;;;1.80;;
10440;SDS011;5268;49.346;9.522;2023-04-03T16:03:52;2.20;;;1.48;;
10440;SDS011;5268;49.346;9.522;2023-04-03T16:08:54;2.88;;;1.60;;
10440;SDS011;5268;49.346;9.522;2023-04-03T16:13:58;1.83;;;1.40;;
10440;SDS011;5268;49.346;9.522;2023-04-03T16:19:02;2.20;;;1.50;;
10440;SDS011;5268;49.346;9.522;2023-04-03T16:24:05;2.53;;;1.33;;
10440;SDS011;5268;49.346;9.522;2023-04-03T16:29:08;3.10;;;1.40;;
10440;SDS011;5268;49.346;9.522;2023-04-03T16:34:12;2.78;;;1.80;;
10440;SDS011;5268;49.346;9.522;2023-04-03T16:39:14;2.92;;;1.50;;
10440;SDS011;5268;49.346;9.522;2023-04-03T16:44:18;2.75;;;1.40;;
10440;SDS011;5268;49.346;9.522;2023-04-03T16:49:25;2.30;;;1.40;;
10440;SDS011;5268;49.346;9.522;2023-04-03T16:54:30;3.95;;;2.22;;
10440;SDS011;5268;49.346;9.522;2023-04-03T16:59:33;2.95;;;1.40;;
10440;SDS011;5268;49.346;9.522;2023-04-03T17:04:36;2.70;;;1.60;;
10440;SDS011;5268;49.346;9.522;2023-04-03T17:09:38;2.17;;;1.45;;
10440;SDS011;5268;49.346;9.522;2023-04-03T17:14:40;3.05;;;1.83;;
10440;SDS011;5268;49.346;9.522;2023-04-03T17:19:43;2.75;;;1.30;;
10440;SDS011;5268;49.346;9.522;2023-04-03T17:24:46;1.67;;;0.85;;
10440;SDS011;5268;49.346;9.522;2023-04-03T17:29:48;1.95;;;1.30;;
10440;SDS011;5268;49.346;9.522;2023-04-03T17:34:51;2.70;;;1.73;;
10440;SDS011;5268;49.346;9.522;2023-04-03T17:39:53;2.08;;;1.10;;
10440;SDS011;5268;49.346;9.522;2023-04-03T17:44:55;5.72;;;1.85;;
10440;SDS011;5268;49.346;9.522;2023-04-03T17:49:59;3.08;;;1.35;;
10440;SDS011;5268;49.346;9.522;2023-04-03T17:55:01;3.58;;;1.90;;
10440;SDS011;5268;49.346;9.522;2023-04-03T18:00:04;2.60;;;1.38;;
10440;SDS011;5268;49.346;9.522;2023-04-03T18:05:10;1.80;;;1.10;;
10440;SDS011;5268;49.346;9.522;2023-04-03T18:10:12;2.75;;;1.67;;
10440;SDS011;5268;49.346;9.522;2023-04-03T18:15:14;3.72;;;1.45;;
10440;SDS011;5268;49.346;9.522;2023-04-03T18:20:18;2.53;;;1.17;;
10440;SDS011;5268;49.346;9.522;2023-04-03T18:25:21;2.90;;;1.08;;
10440;SDS011;5268;49.346;9.522;2023-04-03T18:30:23;4.57;;;1.50;;
10440;SDS011;5268;49.346;9.522;2023-04-03T18:35:27;2.40;;;1.40;;
10440;SDS011;5268;49.346;9.522;2023-04-03T18:40:29;2.38;;;1.45;;
10440;SDS011;5268;49.346;9.522;2023-04-03T18:45:32;1.50;;;1.23;;
10440;SDS011;5268;49.346;9.522;2023-04-03T18:50:35;1.90;;;1.17;;
10440;SDS011;5268;49.346;9.522;2023-04-03T18:55:37;2.75;;;1.52;;
10440;SDS011;5268;49.346;9.522;2023-04-03T19:00:41;3.38;;;1.50;;
10440;SDS011;5268;49.346;9.522;2023-04-03T19:05:45;3.20;;;1.92;;
10440;SDS011;5268;49.346;9.522;2023-04-03T19:10:47;2.60;;;1.63;;
10440;SDS011;5268;49.346;9.522;2023-04-03T19:15:49;1.88;;;1.20;;
10440;SDS011;5268;49.346;9.522;2023-04-03T19:20:54;2.55;;;1.60;;
10440;SDS011;5268;49.346;9.522;2023-04-03T19:25:58;3.20;;;1.40;;
10440;SDS011;5268;49.346;9.522;2023-04-03T19:31:01;1.95;;;1.30;;
10440;SDS011;5268;49.346;9.522;2023-04-03T19:36:05;1.80;;;1.30;;
10440;SDS011;5268;49.346;9.522;2023-04-03T19:41:08;2.90;;;1.55;;
10440;SDS011;5268;49.346;9.522;2023-04-03T19:46:12;1.83;;;1.38;;
10440;SDS011;5268;49.346;9.522;2023-04-03T19:51:15;2.65;;;1.60;;
10440;SDS011;5268;49.346;9.522;2023-04-03T19:56:17;2.72;;;1.67;;
10440;SDS011;5268;49.346;9.522;2023-04-03T20:01:20;1.80;;;1.30;;
10440;SDS011;5268;49.346;9.522;2023-04-03T20:06:24;2.50;;;1.50;;
10440;SDS011;5268;49.346;9.522;2023-04-03T20:11:26;1.92;;;1.20;;
10440;SDS011;5268;49.346;9.522;2023-04-03T20:16:28;2.70;;;1.58;;
10440;SDS011;5268;49.346;9.522;2023-04-03T20:21:32;3.47;;;1.30;;
10440;SDS011;5268;49.346;9.522;2023-04-03T20:26:34;3.17;;;1.40;;
10440;SDS011;5268;49.346;9.522;2023-04-03T20:31:41;3.58;;;1.40;;
10440;SDS011;5268;49.346;9.522;2023-04-03T20:36:44;2.10;;;1.30;;
10440;SDS011;5268;49.346;9.522;2023-04-03T20:41:47;3.97;;;1.52;;
10440;SDS011;5268;49.346;9.522;2023-04-03T20:46:49;2.55;;;1.42;;
10440;SDS011;5268;49.346;9.522;2023-04-03T20:51:53;2.55;;;1.45;;
10440;SDS011;5268;49.346;9.522;2023-04-03T20:56:55;5.50;;;1.50;;
10440;SDS011;5268;49.346;9.522;2023-04-03T21:01:58;4.63;;;1.70;;
10440;SDS011;5268;49.346;9.522;2023-04-03T21:23:55;4.47;;;2.60;;
10440;SDS011;5268;49.346;9.522;2023-04-03T21:28:57;2.40;;;1.50;;
10440;SDS011;5268;49.346;9.522;2023-04-03T21:34:01;4.07;;;1.55;;
10440;SDS011;5268;49.346;9.522;2023-04-03T21:39:03;2.85;;;1.48;;
10440;SDS011;5268;49.346;9.522;2023-04-03T21:44:05;3.35;;;1.70;;
10440;SDS011;5268;49.346;9.522;2023-04-03T21:49:09;2.20;;;1.40;;
10440;SDS011;5268;49.346;9.522;2023-04-03T21:54:10;3.58;;;1.67;;
